createdAt,value
2022-10-04T00:02:35.073Z,100.00
2022-10-04T00:05:42.345Z,100.00
2022-10-04T00:08:58.010Z,100.00
2022-10-04T00:12:06.050Z,100.00
2022-10-04T00:15:25.623Z,100.00
2022-10-04T00:18:41.040Z,100.00
2022-10-04T00:21:56.855Z,100.00
2022-10-04T00:25:08.898Z,100.00
2022-10-04T00:28:26.401Z,100.00
2022-10-04T00:31:32.000Z,100.00
2022-10-04T00:34:49.933Z,100.00
2022-10-04T00:38:08.455Z,100.00
2022-10-04T00:41:14.713Z,100.00
2022-10-04T00:44:28.017Z,100.00
2022-10-04T00:48:08.455Z,100.00
2022-10-04T00:51:30.300Z,100.00
2022-10-04T00:54:47.838Z,100.00
2022-10-04T00:58:00.229Z,100.00
2022-10-04T01:01:06.634Z,100.00
2022-10-04T01:04:28.756Z,100.00
2022-10-04T01:07:41.489Z,100.00
2022-10-04T01:10:59.094Z,100.00
2022-10-04T01:14:15.452Z,100.00
2022-10-04T01:17:20.846Z,100.00
2022-10-04T01:20:35.568Z,100.00
2022-10-04T01:23:48.229Z,100.00
2022-10-04T01:26:54.824Z,100.00
2022-10-04T01:30:02.190Z,100.00
2022-10-04T01:33:07.926Z,100.00
2022-10-04T01:36:13.526Z,100.00
2022-10-04T01:39:22.922Z,100.00
2022-10-04T01:42:44.946Z,100.00
2022-10-04T01:45:57.326Z,100.00
2022-10-04T01:49:12.642Z,100.00
2022-10-04T01:52:35.873Z,100.00
2022-10-04T01:55:45.647Z,100.00
2022-10-04T01:58:59.996Z,100.00
2022-10-04T02:02:18.940Z,100.00
2022-10-04T02:05:40.695Z,100.00
2022-10-04T02:08:52.718Z,100.00
2022-10-04T02:11:59.577Z,100.00
2022-10-04T02:15:08.850Z,100.00
2022-10-04T02:18:18.945Z,100.00
2022-10-04T02:21:24.789Z,100.00
2022-10-04T02:24:34.967Z,100.00
2022-10-04T02:27:40.786Z,100.00
2022-10-04T02:31:09.168Z,100.00
2022-10-04T02:34:19.207Z,100.00
2022-10-04T02:37:29.144Z,100.00
2022-10-04T02:41:14.602Z,100.00
2022-10-04T02:44:40.486Z,100.00
2022-10-04T02:47:54.050Z,100.00
2022-10-04T02:51:26.901Z,100.00
2022-10-04T02:54:43.692Z,100.00
2022-10-04T02:57:53.203Z,100.00
2022-10-04T03:01:02.378Z,100.00
2022-10-04T03:04:11.437Z,100.00
2022-10-04T03:07:17.591Z,100.00
2022-10-04T03:10:22.967Z,100.00
2022-10-04T03:13:28.794Z,100.00
2022-10-04T03:16:40.249Z,100.00
2022-10-04T03:19:49.327Z,100.00
2022-10-04T03:22:57.161Z,100.00
2022-10-04T03:26:20.930Z,100.00
2022-10-04T03:29:30.793Z,100.00
2022-10-04T03:32:36.768Z,100.00
2022-10-04T03:35:42.367Z,100.00
2022-10-04T03:38:49.509Z,100.00
2022-10-04T03:41:55.301Z,100.00
2022-10-04T03:45:04.365Z,100.00
2022-10-04T03:48:15.239Z,100.00
2022-10-04T03:51:24.530Z,100.00
2022-10-04T03:54:31.993Z,100.00
2022-10-04T03:57:38.460Z,100.00
2022-10-04T04:00:57.941Z,100.00
2022-10-04T04:04:36.133Z,100.00
2022-10-04T04:08:05.720Z,100.00
2022-10-04T04:11:21.547Z,100.00
2022-10-04T04:14:28.805Z,100.00
2022-10-04T04:17:43.078Z,100.00
2022-10-04T04:20:51.990Z,100.00
2022-10-04T04:24:03.209Z,100.00
2022-10-04T04:27:11.253Z,100.00
2022-10-04T04:30:19.057Z,100.00
2022-10-04T04:33:30.492Z,100.00
2022-10-04T04:36:42.285Z,100.00
2022-10-04T04:39:55.358Z,100.00
2022-10-04T04:43:03.263Z,100.00
2022-10-04T04:46:26.784Z,100.00
2022-10-04T04:49:38.246Z,100.00
2022-10-04T04:52:55.307Z,100.00
2022-10-04T04:56:04.904Z,100.00
2022-10-04T04:59:13.574Z,100.00
2022-10-04T05:02:58.201Z,100.00
2022-10-04T05:06:05.298Z,100.00
2022-10-04T05:09:34.998Z,100.00
2022-10-04T05:12:40.536Z,100.00
2022-10-04T05:15:48.837Z,100.00
2022-10-04T05:19:08.744Z,100.00
2022-10-04T05:22:19.923Z,100.00
2022-10-04T05:25:32.351Z,100.00
2022-10-04T05:28:38.033Z,100.00
2022-10-04T05:31:46.718Z,100.00
2022-10-04T05:34:54.285Z,100.00
2022-10-04T05:38:11.054Z,100.00
2022-10-04T05:41:52.415Z,100.00
2022-10-04T05:44:58.801Z,100.00
2022-10-04T05:48:09.446Z,100.00
2022-10-04T05:51:31.611Z,100.00
2022-10-04T05:54:38.130Z,100.00
2022-10-04T05:58:25.621Z,100.00
2022-10-04T06:02:31.644Z,100.00
2022-10-04T06:05:54.436Z,100.00
2022-10-04T06:09:34.401Z,100.00
2022-10-04T06:12:55.869Z,100.00
2022-10-04T06:16:24.974Z,100.00
2022-10-04T06:19:53.327Z,100.00
2022-10-04T06:23:06.507Z,100.00
2022-10-04T06:26:22.787Z,100.00
2022-10-04T06:29:58.570Z,100.00
2022-10-04T06:33:23.154Z,100.00
2022-10-04T06:36:39.140Z,100.00
2022-10-04T06:40:21.711Z,100.00
2022-10-04T06:44:20.243Z,100.00
2022-10-04T06:48:01.358Z,100.00
2022-10-04T06:51:27.966Z,100.00
2022-10-04T06:54:41.381Z,100.00
2022-10-04T06:58:15.042Z,100.00
2022-10-04T07:01:29.539Z,100.00
2022-10-04T07:05:07.713Z,100.00
2022-10-04T07:08:56.455Z,100.00
2022-10-04T07:12:08.821Z,100.00
2022-10-04T07:15:22.003Z,100.00
2022-10-04T07:19:05.823Z,100.00
2022-10-04T07:22:15.519Z,100.00
2022-10-04T07:25:51.177Z,100.00
2022-10-04T07:29:20.367Z,100.00
2022-10-04T07:32:31.645Z,100.00
2022-10-04T07:35:47.609Z,100.00
2022-10-04T07:39:10.886Z,100.00
2022-10-04T07:42:27.119Z,100.00
2022-10-04T07:45:40.314Z,100.00
2022-10-04T07:48:49.575Z,100.00
2022-10-04T07:52:28.538Z,100.00
2022-10-04T07:55:51.101Z,100.00
2022-10-04T07:59:15.371Z,100.00
2022-10-04T08:02:42.694Z,100.00
2022-10-04T08:06:29.736Z,100.00
2022-10-04T08:09:44.419Z,100.00
2022-10-04T08:12:57.966Z,99.82
2022-10-04T08:16:21.691Z,98.73
2022-10-04T08:19:39.368Z,98.12
2022-10-04T08:23:32.803Z,97.53
2022-10-04T08:27:01.587Z,97.37
2022-10-04T08:30:11.447Z,98.26
2022-10-04T08:33:37.703Z,98.33
2022-10-04T08:36:48.470Z,99.06
2022-10-04T08:40:13.912Z,98.81
2022-10-04T08:43:43.480Z,98.56
2022-10-04T08:47:25.739Z,98.37
2022-10-04T08:50:49.028Z,98.84
2022-10-04T08:54:22.934Z,98.79
2022-10-04T08:57:42.522Z,98.96
2022-10-04T09:01:09.213Z,98.57
2022-10-04T09:04:39.160Z,97.88
2022-10-04T09:07:54.842Z,98.46
2022-10-04T09:11:45.610Z,97.06
2022-10-04T09:15:26.659Z,98.00
2022-10-04T09:19:00.572Z,98.82
2022-10-04T09:22:36.900Z,98.29
2022-10-04T09:25:59.685Z,99.64
2022-10-04T09:29:26.217Z,99.68
2022-10-04T09:32:57.945Z,99.44
2022-10-04T09:36:22.481Z,98.92
2022-10-04T09:39:46.373Z,98.16
2022-10-04T09:43:30.246Z,98.14
2022-10-04T09:46:35.884Z,97.88
2022-10-04T09:50:06.806Z,98.84
2022-10-04T09:53:49.593Z,99.22
2022-10-04T09:57:07.194Z,98.68
2022-10-04T10:00:23.678Z,98.52
2022-10-04T10:03:51.308Z,96.80
2022-10-04T10:07:30.172Z,97.16
2022-10-04T10:11:10.410Z,94.88
2022-10-04T10:15:06.615Z,95.54
2022-10-04T10:18:40.183Z,95.20
2022-10-04T10:21:54.714Z,94.18
2022-10-04T10:25:19.442Z,95.32
2022-10-04T10:28:29.527Z,96.23
2022-10-04T10:32:06.181Z,93.64
2022-10-04T10:35:30.268Z,94.94
2022-10-04T10:38:48.667Z,95.51
2022-10-04T10:42:17.058Z,94.86
2022-10-04T10:45:50.632Z,92.84
2022-10-04T10:49:22.419Z,92.92
2022-10-04T10:52:46.305Z,93.70
2022-10-04T10:56:04.126Z,92.53
2022-10-04T10:59:41.181Z,92.15
2022-10-04T11:03:13.907Z,92.19
2022-10-04T11:06:26.762Z,92.14
2022-10-04T11:10:11.484Z,92.01
2022-10-04T11:13:42.878Z,89.58
2022-10-04T11:16:51.228Z,91.42
2022-10-04T11:20:27.247Z,89.38
2022-10-04T11:24:15.425Z,88.64
2022-10-04T11:28:01.424Z,90.35
2022-10-04T11:31:17.608Z,90.23
2022-10-04T11:35:18.147Z,88.96
2022-10-04T11:38:35.943Z,88.98
2022-10-04T11:42:02.902Z,88.61
2022-10-04T11:45:28.010Z,88.72
2022-10-04T11:48:39.537Z,90.60
2022-10-04T11:51:50.582Z,88.31
2022-10-04T11:55:34.551Z,89.45
2022-10-04T11:58:45.456Z,89.19
2022-10-04T12:02:18.451Z,90.20
2022-10-04T12:05:42.039Z,88.68
2022-10-04T12:09:14.612Z,87.62
2022-10-04T12:12:42.450Z,89.78
2022-10-04T12:16:01.466Z,90.99
2022-10-04T12:19:21.965Z,89.83
2022-10-04T12:22:43.816Z,88.86
2022-10-04T12:26:00.041Z,87.43
2022-10-04T12:29:34.462Z,89.43
2022-10-04T12:32:57.982Z,88.39
2022-10-04T12:36:24.282Z,89.56
2022-10-04T12:39:53.601Z,89.69
2022-10-04T12:43:07.425Z,89.60
2022-10-04T12:46:30.886Z,88.63
2022-10-04T12:49:51.657Z,88.29
2022-10-04T12:53:02.918Z,89.23
2022-10-04T12:56:13.705Z,87.92
2022-10-04T12:59:29.376Z,89.02
2022-10-04T13:02:52.346Z,87.94
2022-10-04T13:06:15.479Z,86.19
2022-10-04T13:09:35.626Z,87.61
2022-10-04T13:13:04.413Z,87.14
2022-10-04T13:20:32.786Z,87.05
2022-10-04T13:24:15.135Z,85.95
2022-10-04T13:27:48.856Z,85.22
2022-10-04T13:31:10.829Z,85.69
2022-10-04T13:34:29.362Z,86.75
2022-10-04T13:37:51.026Z,84.97
2022-10-04T13:41:11.343Z,85.54
2022-10-04T13:44:33.529Z,87.93
2022-10-04T13:48:00.707Z,87.59
2022-10-04T13:51:34.362Z,86.97
2022-10-04T13:55:08.395Z,88.46
2022-10-04T13:58:36.904Z,87.64
2022-10-04T14:01:48.927Z,87.22
2022-10-04T14:05:19.614Z,87.66
2022-10-04T14:08:37.533Z,87.75
2022-10-04T14:12:07.967Z,87.83
2022-10-04T14:15:23.556Z,88.28
2022-10-04T14:18:45.775Z,89.47
2022-10-04T14:22:12.624Z,88.40
2022-10-04T14:25:56.811Z,86.48
2022-10-04T14:29:53.255Z,86.76
2022-10-04T14:33:26.444Z,87.66
2022-10-04T14:36:56.525Z,87.59
2022-10-04T14:40:28.938Z,88.52
2022-10-04T14:43:55.277Z,87.90
2022-10-04T14:47:35.448Z,87.74
2022-10-04T14:51:19.886Z,88.07
2022-10-04T14:54:29.563Z,86.71
2022-10-04T14:58:14.063Z,85.85
2022-10-04T15:01:24.948Z,86.45
2022-10-04T15:04:54.689Z,85.71
2022-10-04T15:08:23.095Z,84.82
2022-10-04T15:11:53.498Z,86.74
2022-10-04T15:15:14.656Z,86.79
2022-10-04T15:18:38.676Z,85.57
2022-10-04T15:21:47.394Z,86.99
2022-10-04T15:24:53.989Z,86.42
2022-10-04T15:28:00.313Z,87.99
2022-10-04T15:31:24.251Z,87.21
2022-10-04T15:35:08.164Z,85.21
2022-10-04T15:38:34.380Z,84.89
2022-10-04T15:41:54.404Z,86.33
2022-10-04T15:45:17.682Z,87.05
2022-10-04T15:48:35.242Z,87.36
2022-10-04T15:52:13.222Z,87.79
2022-10-04T15:55:50.860Z,88.98
2022-10-04T15:59:24.922Z,88.54
2022-10-04T16:02:57.116Z,88.75
2022-10-04T16:06:12.983Z,89.34
2022-10-04T16:09:59.590Z,89.14
2022-10-04T16:13:17.431Z,89.27
2022-10-04T16:16:35.010Z,90.08
2022-10-04T16:20:04.833Z,90.81
2022-10-04T16:23:34.671Z,91.24
2022-10-04T16:26:43.858Z,91.92
2022-10-04T16:30:21.771Z,92.25
2022-10-04T16:33:29.707Z,92.94
2022-10-04T16:37:05.750Z,93.41
2022-10-04T16:40:27.432Z,94.56
2022-10-04T16:43:33.520Z,94.50
2022-10-04T16:46:46.702Z,94.43
2022-10-04T16:49:58.179Z,95.56
2022-10-04T16:53:44.080Z,96.27
2022-10-04T16:56:58.328Z,96.85
2022-10-04T17:00:36.452Z,96.56
2022-10-04T17:03:57.143Z,98.61
2022-10-04T17:07:12.519Z,98.64
2022-10-04T17:10:45.334Z,99.14
2022-10-04T17:14:00.007Z,99.99
2022-10-04T17:17:35.642Z,100.00
2022-10-04T17:20:43.762Z,100.00
2022-10-04T17:24:12.191Z,100.00
2022-10-04T17:27:39.536Z,100.00
2022-10-04T17:31:01.347Z,100.00
2022-10-04T17:34:14.759Z,100.00
2022-10-04T17:37:48.331Z,100.00
2022-10-04T17:41:20.903Z,100.00
2022-10-04T17:44:34.483Z,100.00
2022-10-04T17:48:07.833Z,100.00
2022-10-04T17:51:50.645Z,100.00
2022-10-04T17:55:16.022Z,100.00
2022-10-04T17:58:31.577Z,100.00
2022-10-04T18:01:43.168Z,100.00
2022-10-04T18:04:53.437Z,100.00
2022-10-04T18:08:23.525Z,100.00
2022-10-04T18:11:42.044Z,100.00
2022-10-04T18:14:50.437Z,100.00
2022-10-04T18:18:19.269Z,100.00
2022-10-04T18:21:29.699Z,100.00
2022-10-04T18:24:34.920Z,100.00
2022-10-04T18:28:06.993Z,100.00
2022-10-04T18:31:35.639Z,100.00
2022-10-04T18:34:42.048Z,100.00
2022-10-04T18:37:47.458Z,100.00
2022-10-04T18:40:58.544Z,100.00
2022-10-04T18:44:15.129Z,100.00
2022-10-04T18:47:34.693Z,100.00
2022-10-04T18:50:48.963Z,100.00
2022-10-04T18:54:22.311Z,100.00
2022-10-04T18:57:59.367Z,100.00
2022-10-04T19:01:34.589Z,100.00
2022-10-04T19:04:49.395Z,100.00
2022-10-04T19:08:30.811Z,100.00
2022-10-04T19:12:09.891Z,100.00
2022-10-04T19:15:28.317Z,100.00
2022-10-04T19:19:08.082Z,100.00
2022-10-04T19:22:38.569Z,100.00
2022-10-04T19:26:17.641Z,100.00
2022-10-04T19:29:54.682Z,100.00
2022-10-04T19:33:05.952Z,100.00
2022-10-04T19:36:23.615Z,100.00
2022-10-04T19:39:55.034Z,100.00
2022-10-04T19:43:05.926Z,100.00
2022-10-04T19:46:33.253Z,100.00
2022-10-04T19:50:03.085Z,100.00
2022-10-04T19:53:28.038Z,100.00
2022-10-04T19:56:38.859Z,100.00
2022-10-04T19:59:49.747Z,100.00
2022-10-04T20:02:55.785Z,100.00
2022-10-04T20:06:09.918Z,100.00
2022-10-04T20:09:34.733Z,100.00
2022-10-04T20:12:43.317Z,100.00
2022-10-04T20:15:50.546Z,100.00
2022-10-04T20:19:00.682Z,100.00
2022-10-04T20:22:11.198Z,100.00
2022-10-04T20:25:46.911Z,100.00
2022-10-04T20:28:52.752Z,100.00
2022-10-04T20:31:59.097Z,100.00
2022-10-04T20:35:52.135Z,100.00
2022-10-04T20:39:02.629Z,100.00
2022-10-04T20:42:30.233Z,100.00
2022-10-04T20:45:45.526Z,100.00
2022-10-04T20:48:53.932Z,100.00
2022-10-04T20:51:59.461Z,100.00
2022-10-04T20:55:21.347Z,100.00
2022-10-04T20:58:35.632Z,100.00
2022-10-04T21:01:44.586Z,100.00
2022-10-04T21:04:54.118Z,100.00
2022-10-04T21:08:21.837Z,100.00
2022-10-04T21:11:44.505Z,100.00
2022-10-04T21:15:19.025Z,100.00
2022-10-04T21:18:24.633Z,100.00
2022-10-04T21:21:49.497Z,100.00
2022-10-04T21:25:00.450Z,100.00
2022-10-04T21:28:24.396Z,100.00
2022-10-04T21:31:29.843Z,100.00
2022-10-04T21:34:52.442Z,100.00
2022-10-04T21:37:59.194Z,100.00
2022-10-04T21:41:05.408Z,100.00
2022-10-04T21:44:10.447Z,100.00
2022-10-04T21:47:16.416Z,100.00
2022-10-04T21:50:21.465Z,100.00
2022-10-04T21:53:26.598Z,100.00
2022-10-04T21:56:32.256Z,100.00
2022-10-04T21:59:37.986Z,100.00
2022-10-04T22:02:43.348Z,100.00
2022-10-04T22:05:48.466Z,100.00
2022-10-04T22:08:53.825Z,100.00
2022-10-04T22:11:58.779Z,100.00
2022-10-04T22:15:05.229Z,100.00
2022-10-04T22:18:10.726Z,100.00
2022-10-04T22:21:15.695Z,100.00
2022-10-04T22:24:21.278Z,100.00
2022-10-04T22:27:29.076Z,100.00
2022-10-04T22:30:36.824Z,100.00
2022-10-04T22:33:45.003Z,100.00
2022-10-04T22:36:53.486Z,100.00
2022-10-04T22:39:59.121Z,100.00
2022-10-04T22:43:04.673Z,100.00
2022-10-04T22:46:19.389Z,100.00
2022-10-04T22:49:36.606Z,100.00
2022-10-04T22:52:42.056Z,100.00
2022-10-04T22:55:52.463Z,100.00
2022-10-04T22:58:59.967Z,100.00
2022-10-04T23:02:28.940Z,100.00
2022-10-04T23:05:34.074Z,100.00
2022-10-04T23:08:40.343Z,100.00
2022-10-04T23:11:46.159Z,100.00
2022-10-04T23:14:51.659Z,100.00
2022-10-04T23:17:57.683Z,100.00
2022-10-04T23:21:03.757Z,100.00
2022-10-04T23:24:18.524Z,100.00
2022-10-04T23:27:24.159Z,100.00
2022-10-04T23:30:29.482Z,100.00
2022-10-04T23:33:34.827Z,100.00
2022-10-04T23:36:40.819Z,100.00
2022-10-04T23:39:47.072Z,100.00
2022-10-04T23:42:57.014Z,100.00
2022-10-04T23:46:02.693Z,100.00
2022-10-04T23:49:15.795Z,100.00
2022-10-04T23:52:37.008Z,100.00
2022-10-04T23:55:45.938Z,100.00
2022-10-04T23:58:55.998Z,100.00
